sensor_id;sensor_type;location;lat;lon;timestamp;P1;durP1;ratioP1;P2;durP2;ratioP2
79124;SDS011;68527;39.470;-0.376;2023-07-13T00:00:23;3.80;;;2.50;;
79124;SDS011;68527;39.470;-0.376;2023-07-13T00:02:48;3.90;;;2.40;;
79124;SDS011;68527;39.470;-0.376;2023-07-13T00:05:15;4.20;;;2.30;;
79124;SDS011;68527;39.470;-0.376;2023-07-13T00:07:41;3.50;;;2.50;;
79124;SDS011;68527;39.470;-0.376;2023-07-13T00:10:06;3.60;;;2.30;;
79124;SDS011;68527;39.470;-0.376;2023-07-13T00:12:34;3.60;;;2.30;;
79124;SDS011;68527;39.470;-0.376;2023-07-13T00:15:06;3.90;;;2.60;;
79124;SDS011;68527;39.470;-0.376;2023-07-13T00:17:35;2.90;;;2.10;;
79124;SDS011;68527;39.470;-0.376;2023-07-13T00:20:03;4.30;;;2.70;;
79124;SDS011;68527;39.470;-0.376;2023-07-13T00:22:29;3.90;;;2.40;;
79124;SDS011;68527;39.470;-0.376;2023-07-13T00:24:55;3.90;;;2.80;;
79124;SDS011;68527;39.470;-0.376;2023-07-13T00:27:22;2.80;;;2.20;;
79124;SDS011;68527;39.470;-0.376;2023-07-13T00:29:48;4.30;;;2.30;;
79124;SDS011;68527;39.470;-0.376;2023-07-13T00:32:13;3.00;;;2.60;;
79124;SDS011;68527;39.470;-0.376;2023-07-13T00:34:39;3.50;;;2.30;;
79124;SDS011;68527;39.470;-0.376;2023-07-13T00:37:06;4.10;;;2.80;;
79124;SDS011;68527;39.470;-0.376;2023-07-13T00:39:33;4.10;;;2.40;;
79124;SDS011;68527;39.470;-0.376;2023-07-13T00:41:59;4.20;;;2.40;;
79124;SDS011;68527;39.470;-0.376;2023-07-13T00:44:26;3.80;;;2.30;;
79124;SDS011;68527;39.470;-0.376;2023-07-13T00:46:51;3.10;;;1.90;;
79124;SDS011;68527;39.470;-0.376;2023-07-13T00:49:23;3.90;;;2.50;;
79124;SDS011;68527;39.470;-0.376;2023-07-13T00:52:06;3.40;;;2.30;;
79124;SDS011;68527;39.470;-0.376;2023-07-13T00:54:34;3.40;;;2.20;;
79124;SDS011;68527;39.470;-0.376;2023-07-13T00:57:04;3.40;;;2.40;;
79124;SDS011;68527;39.470;-0.376;2023-07-13T00:59:32;3.20;;;2.00;;
79124;SDS011;68527;39.470;-0.376;2023-07-13T01:02:00;2.80;;;2.20;;
79124;SDS011;68527;39.470;-0.376;2023-07-13T01:04:26;5.40;;;3.00;;
79124;SDS011;68527;39.470;-0.376;2023-07-13T01:06:51;4.60;;;2.40;;
79124;SDS011;68527;39.470;-0.376;2023-07-13T01:09:17;3.50;;;2.30;;
79124;SDS011;68527;39.470;-0.376;2023-07-13T01:11:43;4.00;;;2.40;;
79124;SDS011;68527;39.470;-0.376;2023-07-13T01:14:10;3.40;;;2.60;;
79124;SDS011;68527;39.470;-0.376;2023-07-13T01:16:36;3.00;;;2.20;;
79124;SDS011;68527;39.470;-0.376;2023-07-13T01:19:27;4.90;;;2.40;;
79124;SDS011;68527;39.470;-0.376;2023-07-13T01:22:05;3.40;;;2.30;;
79124;SDS011;68527;39.470;-0.376;2023-07-13T01:24:34;4.00;;;2.20;;
79124;SDS011;68527;39.470;-0.376;2023-07-13T01:27:01;5.80;;;2.80;;
79124;SDS011;68527;39.470;-0.376;2023-07-13T01:29:27;4.60;;;2.10;;
79124;SDS011;68527;39.470;-0.376;2023-07-13T01:31:53;2.90;;;2.10;;
79124;SDS011;68527;39.470;-0.376;2023-07-13T01:34:18;5.00;;;2.60;;
79124;SDS011;68527;39.470;-0.376;2023-07-13T01:36:44;3.80;;;2.20;;
79124;SDS011;68527;39.470;-0.376;2023-07-13T01:39:09;3.40;;;2.20;;
79124;SDS011;68527;39.470;-0.376;2023-07-13T01:41:35;4.80;;;2.40;;
79124;SDS011;68527;39.470;-0.376;2023-07-13T01:44:00;3.10;;;2.10;;
79124;SDS011;68527;39.470;-0.376;2023-07-13T01:46:26;3.10;;;2.10;;
79124;SDS011;68527;39.470;-0.376;2023-07-13T01:48:51;3.40;;;2.40;;
79124;SDS011;68527;39.470;-0.376;2023-07-13T01:51:18;3.30;;;2.20;;
79124;SDS011;68527;39.470;-0.376;2023-07-13T01:53:44;3.90;;;2.30;;
79124;SDS011;68527;39.470;-0.376;2023-07-13T01:56:10;3.30;;;1.90;;
79124;SDS011;68527;39.470;-0.376;2023-07-13T01:58:35;3.50;;;2.00;;
79124;SDS011;68527;39.470;-0.376;2023-07-13T02:01:01;4.80;;;2.40;;
79124;SDS011;68527;39.470;-0.376;2023-07-13T02:03:26;3.90;;;2.60;;
79124;SDS011;68527;39.470;-0.376;2023-07-13T02:05:52;3.20;;;2.40;;
79124;SDS011;68527;39.470;-0.376;2023-07-13T02:08:17;4.20;;;2.20;;
79124;SDS011;68527;39.470;-0.376;2023-07-13T02:10:43;3.30;;;2.40;;
79124;SDS011;68527;39.470;-0.376;2023-07-13T02:13:09;4.30;;;2.50;;
79124;SDS011;68527;39.470;-0.376;2023-07-13T02:15:34;4.00;;;2.20;;
79124;SDS011;68527;39.470;-0.376;2023-07-13T02:18:04;3.10;;;1.90;;
79124;SDS011;68527;39.470;-0.376;2023-07-13T02:20:30;3.50;;;2.30;;
79124;SDS011;68527;39.470;-0.376;2023-07-13T02:22:55;4.30;;;2.30;;
79124;SDS011;68527;39.470;-0.376;2023-07-13T02:25:21;4.80;;;2.60;;
79124;SDS011;68527;39.470;-0.376;2023-07-13T02:27:46;3.60;;;2.30;;
79124;SDS011;68527;39.470;-0.376;2023-07-13T02:30:12;4.20;;;2.20;;
79124;SDS011;68527;39.470;-0.376;2023-07-13T02:32:37;3.70;;;2.50;;
79124;SDS011;68527;39.470;-0.376;2023-07-13T02:35:03;3.00;;;2.20;;
79124;SDS011;68527;39.470;-0.376;2023-07-13T02:37:29;3.90;;;2.00;;
79124;SDS011;68527;39.470;-0.376;2023-07-13T02:39:56;3.40;;;2.20;;
79124;SDS011;68527;39.470;-0.376;2023-07-13T02:42:22;5.10;;;2.60;;
79124;SDS011;68527;39.470;-0.376;2023-07-13T02:44:48;3.40;;;2.10;;
79124;SDS011;68527;39.470;-0.376;2023-07-13T02:47:16;2.40;;;2.10;;
79124;SDS011;68527;39.470;-0.376;2023-07-13T02:49:41;4.20;;;2.30;;
79124;SDS011;68527;39.470;-0.376;2023-07-13T02:52:07;4.20;;;2.60;;
79124;SDS011;68527;39.470;-0.376;2023-07-13T02:54:32;3.00;;;2.00;;
79124;SDS011;68527;39.470;-0.376;2023-07-13T02:56:58;3.70;;;2.20;;
79124;SDS011;68527;39.470;-0.376;2023-07-13T02:59:23;3.80;;;2.60;;
79124;SDS011;68527;39.470;-0.376;2023-07-13T03:01:49;3.40;;;2.30;;
79124;SDS011;68527;39.470;-0.376;2023-07-13T03:04:15;4.30;;;2.20;;
79124;SDS011;68527;39.470;-0.376;2023-07-13T03:06:45;4.00;;;2.30;;
79124;SDS011;68527;39.470;-0.376;2023-07-13T03:09:10;3.30;;;2.00;;
79124;SDS011;68527;39.470;-0.376;2023-07-13T03:11:37;3.30;;;2.20;;
79124;SDS011;68527;39.470;-0.376;2023-07-13T03:14:03;3.00;;;2.20;;
79124;SDS011;68527;39.470;-0.376;2023-07-13T03:16:29;3.40;;;2.40;;
79124;SDS011;68527;39.470;-0.376;2023-07-13T03:18:54;4.00;;;2.10;;
79124;SDS011;68527;39.470;-0.376;2023-07-13T03:21:20;2.70;;;2.00;;
79124;SDS011;68527;39.470;-0.376;2023-07-13T03:23:46;4.30;;;2.30;;
79124;SDS011;68527;39.470;-0.376;2023-07-13T03:26:13;4.00;;;2.70;;
79124;SDS011;68527;39.470;-0.376;2023-07-13T03:28:41;3.40;;;2.10;;
79124;SDS011;68527;39.470;-0.376;2023-07-13T03:31:12;3.30;;;2.20;;
79124;SDS011;68527;39.470;-0.376;2023-07-13T03:33:39;3.40;;;2.40;;
79124;SDS011;68527;39.470;-0.376;2023-07-13T03:36:06;3.20;;;2.30;;
79124;SDS011;68527;39.470;-0.376;2023-07-13T03:38:39;3.60;;;2.20;;
79124;SDS011;68527;39.470;-0.376;2023-07-13T03:41:05;3.10;;;2.20;;
79124;SDS011;68527;39.470;-0.376;2023-07-13T03:43:30;4.50;;;2.70;;
79124;SDS011;68527;39.470;-0.376;2023-07-13T03:45:56;3.40;;;2.30;;
79124;SDS011;68527;39.470;-0.376;2023-07-13T03:48:21;4.20;;;2.40;;
79124;SDS011;68527;39.470;-0.376;2023-07-13T03:50:47;3.50;;;2.40;;
79124;SDS011;68527;39.470;-0.376;2023-07-13T03:53:14;5.50;;;2.80;;
79124;SDS011;68527;39.470;-0.376;2023-07-13T03:55:40;4.30;;;2.40;;
79124;SDS011;68527;39.470;-0.376;2023-07-13T04:00:52;3.10;;;2.20;;
79124;SDS011;68527;39.470;-0.376;2023-07-13T04:03:18;4.40;;;2.30;;
79124;SDS011;68527;39.470;-0.376;2023-07-13T04:05:44;3.60;;;2.50;;
79124;SDS011;68527;39.470;-0.376;2023-07-13T04:08:10;3.70;;;2.40;;
79124;SDS011;68527;39.470;-0.376;2023-07-13T04:10:35;4.60;;;2.40;;
79124;SDS011;68527;39.470;-0.376;2023-07-13T04:13:01;3.70;;;2.70;;
79124;SDS011;68527;39.470;-0.376;2023-07-13T04:15:29;3.90;;;2.40;;
79124;SDS011;68527;39.470;-0.376;2023-07-13T04:17:56;4.90;;;2.50;;
79124;SDS011;68527;39.470;-0.376;2023-07-13T04:20:21;3.60;;;2.50;;
79124;SDS011;68527;39.470;-0.376;2023-07-13T04:22:49;4.00;;;2.70;;
79124;SDS011;68527;39.470;-0.376;2023-07-13T04:25:14;4.60;;;2.70;;
79124;SDS011;68527;39.470;-0.376;2023-07-13T04:27:40;2.80;;;2.20;;
79124;SDS011;68527;39.470;-0.376;2023-07-13T04:30:06;4.20;;;2.80;;
79124;SDS011;68527;39.470;-0.376;2023-07-13T04:32:32;4.50;;;2.60;;
79124;SDS011;68527;39.470;-0.376;2023-07-13T04:34:58;4.00;;;2.40;;
79124;SDS011;68527;39.470;-0.376;2023-07-13T04:37:27;4.40;;;2.50;;
79124;SDS011;68527;39.470;-0.376;2023-07-13T04:39:53;5.00;;;2.70;;
79124;SDS011;68527;39.470;-0.376;2023-07-13T04:42:19;5.00;;;2.70;;
79124;SDS011;68527;39.470;-0.376;2023-07-13T04:44:48;3.90;;;2.60;;
79124;SDS011;68527;39.470;-0.376;2023-07-13T04:47:14;4.80;;;2.60;;
79124;SDS011;68527;39.470;-0.376;2023-07-13T04:49:40;5.00;;;2.80;;
79124;SDS011;68527;39.470;-0.376;2023-07-13T04:52:06;3.40;;;3.10;;
79124;SDS011;68527;39.470;-0.376;2023-07-13T04:54:32;3.30;;;2.30;;
79124;SDS011;68527;39.470;-0.376;2023-07-13T04:56:59;4.40;;;2.40;;
79124;SDS011;68527;39.470;-0.376;2023-07-13T04:59:25;5.90;;;3.00;;
79124;SDS011;68527;39.470;-0.376;2023-07-13T05:01:50;7.10;;;2.90;;
79124;SDS011;68527;39.470;-0.376;2023-07-13T05:04:16;5.00;;;2.80;;
79124;SDS011;68527;39.470;-0.376;2023-07-13T05:06:42;5.20;;;3.10;;
79124;SDS011;68527;39.470;-0.376;2023-07-13T05:09:07;5.50;;;3.10;;
79124;SDS011;68527;39.470;-0.376;2023-07-13T05:11:33;4.40;;;3.00;;
79124;SDS011;68527;39.470;-0.376;2023-07-13T05:13:58;6.60;;;3.10;;
79124;SDS011;68527;39.470;-0.376;2023-07-13T05:16:24;4.90;;;3.00;;
79124;SDS011;68527;39.470;-0.376;2023-07-13T05:18:49;8.10;;;3.00;;
79124;SDS011;68527;39.470;-0.376;2023-07-13T05:21:15;4.70;;;3.10;;
79124;SDS011;68527;39.470;-0.376;2023-07-13T05:23:40;4.80;;;3.00;;
79124;SDS011;68527;39.470;-0.376;2023-07-13T05:26:09;5.50;;;2.80;;
79124;SDS011;68527;39.470;-0.376;2023-07-13T05:28:35;6.10;;;2.80;;
79124;SDS011;68527;39.470;-0.376;2023-07-13T05:31:01;3.60;;;2.70;;
79124;SDS011;68527;39.470;-0.376;2023-07-13T05:33:26;5.20;;;3.00;;
79124;SDS011;68527;39.470;-0.376;2023-07-13T05:35:52;5.20;;;3.50;;
79124;SDS011;68527;39.470;-0.376;2023-07-13T05:38:18;6.20;;;3.30;;
79124;SDS011;68527;39.470;-0.376;2023-07-13T05:40:44;5.30;;;3.20;;
79124;SDS011;68527;39.470;-0.376;2023-07-13T05:43:10;6.40;;;3.50;;
79124;SDS011;68527;39.470;-0.376;2023-07-13T05:45:37;6.30;;;3.70;;
79124;SDS011;68527;39.470;-0.376;2023-07-13T05:48:02;5.50;;;3.40;;
79124;SDS011;68527;39.470;-0.376;2023-07-13T05:50:28;5.90;;;3.80;;
79124;SDS011;68527;39.470;-0.376;2023-07-13T05:52:53;6.60;;;3.90;;
79124;SDS011;68527;39.470;-0.376;2023-07-13T05:55:19;5.40;;;3.50;;
79124;SDS011;68527;39.470;-0.376;2023-07-13T05:57:45;6.60;;;3.60;;
79124;SDS011;68527;39.470;-0.376;2023-07-13T06:00:12;5.90;;;3.60;;
79124;SDS011;68527;39.470;-0.376;2023-07-13T06:02:38;5.60;;;3.50;;
79124;SDS011;68527;39.470;-0.376;2023-07-13T06:05:04;5.80;;;3.90;;
79124;SDS011;68527;39.470;-0.376;2023-07-13T06:07:30;7.60;;;4.30;;
79124;SDS011;68527;39.470;-0.376;2023-07-13T06:09:55;7.60;;;4.10;;
79124;SDS011;68527;39.470;-0.376;2023-07-13T06:12:21;5.20;;;3.50;;
79124;SDS011;68527;39.470;-0.376;2023-07-13T06:14:47;5.70;;;4.10;;
79124;SDS011;68527;39.470;-0.376;2023-07-13T06:17:12;6.10;;;3.60;;
79124;SDS011;68527;39.470;-0.376;2023-07-13T06:19:38;5.70;;;3.70;;
79124;SDS011;68527;39.470;-0.376;2023-07-13T06:22:03;6.30;;;3.60;;
79124;SDS011;68527;39.470;-0.376;2023-07-13T06:24:29;6.90;;;3.60;;
79124;SDS011;68527;39.470;-0.376;2023-07-13T06:26:55;5.80;;;3.90;;
79124;SDS011;68527;39.470;-0.376;2023-07-13T06:29:20;6.30;;;3.40;;
79124;SDS011;68527;39.470;-0.376;2023-07-13T06:31:46;5.20;;;3.80;;
79124;SDS011;68527;39.470;-0.376;2023-07-13T06:34:11;7.40;;;4.10;;
79124;SDS011;68527;39.470;-0.376;2023-07-13T06:36:37;8.00;;;4.20;;
79124;SDS011;68527;39.470;-0.376;2023-07-13T06:39:04;8.30;;;4.20;;
79124;SDS011;68527;39.470;-0.376;2023-07-13T06:41:30;5.70;;;3.80;;
79124;SDS011;68527;39.470;-0.376;2023-07-13T06:43:55;7.30;;;4.20;;
79124;SDS011;68527;39.470;-0.376;2023-07-13T06:46:21;7.20;;;4.20;;
79124;SDS011;68527;39.470;-0.376;2023-07-13T06:48:47;9.00;;;4.10;;
79124;SDS011;68527;39.470;-0.376;2023-07-13T06:51:13;8.10;;;4.20;;
79124;SDS011;68527;39.470;-0.376;2023-07-13T06:53:39;6.60;;;4.30;;
79124;SDS011;68527;39.470;-0.376;2023-07-13T06:56:04;6.80;;;3.80;;
79124;SDS011;68527;39.470;-0.376;2023-07-13T06:58:30;7.20;;;4.60;;
79124;SDS011;68527;39.470;-0.376;2023-07-13T07:00:56;7.30;;;3.90;;
79124;SDS011;68527;39.470;-0.376;2023-07-13T07:03:21;9.90;;;4.30;;
79124;SDS011;68527;39.470;-0.376;2023-07-13T07:05:47;8.60;;;4.00;;
79124;SDS011;68527;39.470;-0.376;2023-07-13T07:08:12;7.40;;;3.80;;
79124;SDS011;68527;39.470;-0.376;2023-07-13T07:10:38;7.70;;;4.20;;
79124;SDS011;68527;39.470;-0.376;2023-07-13T07:13:03;6.30;;;3.80;;
79124;SDS011;68527;39.470;-0.376;2023-07-13T07:15:29;7.40;;;4.30;;
79124;SDS011;68527;39.470;-0.376;2023-07-13T07:17:55;10.20;;;5.00;;
79124;SDS011;68527;39.470;-0.376;2023-07-13T07:20:20;7.40;;;3.80;;
79124;SDS011;68527;39.470;-0.376;2023-07-13T07:22:46;6.80;;;4.30;;
79124;SDS011;68527;39.470;-0.376;2023-07-13T07:25:12;6.80;;;4.30;;
79124;SDS011;68527;39.470;-0.376;2023-07-13T07:27:38;8.60;;;4.70;;
79124;SDS011;68527;39.470;-0.376;2023-07-13T07:30:04;6.40;;;3.90;;
79124;SDS011;68527;39.470;-0.376;2023-07-13T07:32:30;7.10;;;3.90;;
79124;SDS011;68527;39.470;-0.376;2023-07-13T07:34:56;5.20;;;4.00;;
79124;SDS011;68527;39.470;-0.376;2023-07-13T07:37:22;7.40;;;4.30;;
79124;SDS011;68527;39.470;-0.376;2023-07-13T07:39:48;11.30;;;4.60;;
79124;SDS011;68527;39.470;-0.376;2023-07-13T07:42:14;7.60;;;4.50;;
79124;SDS011;68527;39.470;-0.376;2023-07-13T07:44:40;12.30;;;5.10;;
79124;SDS011;68527;39.470;-0.376;2023-07-13T07:47:06;10.20;;;5.10;;
79124;SDS011;68527;39.470;-0.376;2023-07-13T07:49:32;9.30;;;5.00;;
79124;SDS011;68527;39.470;-0.376;2023-07-13T07:51:57;10.00;;;5.60;;
79124;SDS011;68527;39.470;-0.376;2023-07-13T07:54:23;12.20;;;5.60;;
79124;SDS011;68527;39.470;-0.376;2023-07-13T07:56:49;10.40;;;5.50;;
79124;SDS011;68527;39.470;-0.376;2023-07-13T07:59:14;10.70;;;4.90;;
79124;SDS011;68527;39.470;-0.376;2023-07-13T08:01:40;11.00;;;4.90;;
79124;SDS011;68527;39.470;-0.376;2023-07-13T08:04:05;12.90;;;5.40;;
79124;SDS011;68527;39.470;-0.376;2023-07-13T08:06:32;12.50;;;5.70;;
79124;SDS011;68527;39.470;-0.376;2023-07-13T08:08:58;10.80;;;5.40;;
79124;SDS011;68527;39.470;-0.376;2023-07-13T08:11:24;9.40;;;5.20;;
79124;SDS011;68527;39.470;-0.376;2023-07-13T08:13:50;10.70;;;5.30;;
79124;SDS011;68527;39.470;-0.376;2023-07-13T08:16:15;13.90;;;5.70;;
79124;SDS011;68527;39.470;-0.376;2023-07-13T08:18:41;12.80;;;5.80;;
79124;SDS011;68527;39.470;-0.376;2023-07-13T08:21:07;13.10;;;5.70;;
79124;SDS011;68527;39.470;-0.376;2023-07-13T08:23:33;10.70;;;5.90;;
79124;SDS011;68527;39.470;-0.376;2023-07-13T08:25:59;10.40;;;5.60;;
79124;SDS011;68527;39.470;-0.376;2023-07-13T08:28:26;11.20;;;6.00;;
79124;SDS011;68527;39.470;-0.376;2023-07-13T08:30:53;11.30;;;5.90;;
79124;SDS011;68527;39.470;-0.376;2023-07-13T08:33:18;11.40;;;5.40;;
79124;SDS011;68527;39.470;-0.376;2023-07-13T08:35:46;13.80;;;6.40;;
79124;SDS011;68527;39.470;-0.376;2023-07-13T08:38:12;12.30;;;6.50;;
79124;SDS011;68527;39.470;-0.376;2023-07-13T08:40:38;12.80;;;5.50;;
79124;SDS011;68527;39.470;-0.376;2023-07-13T08:43:04;11.80;;;5.70;;
79124;SDS011;68527;39.470;-0.376;2023-07-13T08:48:26;10.90;;;6.40;;
79124;SDS011;68527;39.470;-0.376;2023-07-13T08:50:57;11.60;;;5.40;;
79124;SDS011;68527;39.470;-0.376;2023-07-13T08:53:29;11.00;;;5.80;;
79124;SDS011;68527;39.470;-0.376;2023-07-13T08:55:59;12.40;;;6.10;;
79124;SDS011;68527;39.470;-0.376;2023-07-13T08:58:25;11.50;;;5.80;;
79124;SDS011;68527;39.470;-0.376;2023-07-13T09:01:00;12.40;;;5.70;;
79124;SDS011;68527;39.470;-0.376;2023-07-13T09:03:42;9.80;;;5.70;;
79124;SDS011;68527;39.470;-0.376;2023-07-13T09:12:02;9.60;;;5.80;;
79124;SDS011;68527;39.470;-0.376;2023-07-13T09:14:45;9.60;;;5.40;;
79124;SDS011;68527;39.470;-0.376;2023-07-13T09:17:22;11.10;;;5.60;;
79124;SDS011;68527;39.470;-0.376;2023-07-13T09:20:02;10.40;;;5.70;;
79124;SDS011;68527;39.470;-0.376;2023-07-13T09:22:36;10.80;;;5.30;;
79124;SDS011;68527;39.470;-0.376;2023-07-13T09:27:47;9.20;;;5.40;;
79124;SDS011;68527;39.470;-0.376;2023-07-13T09:32:39;10.70;;;5.60;;
79124;SDS011;68527;39.470;-0.376;2023-07-13T09:35:16;7.20;;;4.90;;
79124;SDS011;68527;39.470;-0.376;2023-07-13T09:37:46;9.40;;;5.40;;
79124;SDS011;68527;39.470;-0.376;2023-07-13T09:40:23;9.60;;;5.20;;
79124;SDS011;68527;39.470;-0.376;2023-07-13T09:42:53;10.80;;;5.90;;
79124;SDS011;68527;39.470;-0.376;2023-07-13T09:45:29;10.60;;;5.50;;
79124;SDS011;68527;39.470;-0.376;2023-07-13T09:48:03;8.80;;;5.60;;
79124;SDS011;68527;39.470;-0.376;2023-07-13T09:50:30;10.70;;;5.20;;
79124;SDS011;68527;39.470;-0.376;2023-07-13T09:52:56;11.00;;;5.40;;
79124;SDS011;68527;39.470;-0.376;2023-07-13T09:55:25;11.00;;;6.00;;
79124;SDS011;68527;39.470;-0.376;2023-07-13T10:00:36;7.70;;;5.20;;
79124;SDS011;68527;39.470;-0.376;2023-07-13T10:03:09;8.70;;;5.20;;
79124;SDS011;68527;39.470;-0.376;2023-07-13T10:05:43;11.40;;;5.40;;
79124;SDS011;68527;39.470;-0.376;2023-07-13T10:08:44;9.50;;;5.40;;
79124;SDS011;68527;39.470;-0.376;2023-07-13T10:11:36;8.50;;;5.30;;
79124;SDS011;68527;39.470;-0.376;2023-07-13T10:13:56;7.90;;;5.10;;
79124;SDS011;68527;39.470;-0.376;2023-07-13T10:16:26;8.50;;;5.40;;
79124;SDS011;68527;39.470;-0.376;2023-07-13T10:18:59;9.20;;;4.90;;
79124;SDS011;68527;39.470;-0.376;2023-07-13T10:22:20;8.90;;;5.60;;
79124;SDS011;68527;39.470;-0.376;2023-07-13T10:24:23;9.70;;;5.00;;
79124;SDS011;68527;39.470;-0.376;2023-07-13T10:27:25;8.00;;;5.10;;
79124;SDS011;68527;39.470;-0.376;2023-07-13T10:29:50;7.60;;;5.30;;
79124;SDS011;68527;39.470;-0.376;2023-07-13T10:32:19;7.30;;;4.80;;
79124;SDS011;68527;39.470;-0.376;2023-07-13T10:34:48;7.20;;;4.90;;
79124;SDS011;68527;39.470;-0.376;2023-07-13T10:37:21;8.70;;;5.10;;
79124;SDS011;68527;39.470;-0.376;2023-07-13T10:39:50;10.40;;;5.40;;
79124;SDS011;68527;39.470;-0.376;2023-07-13T10:42:21;8.10;;;5.40;;
79124;SDS011;68527;39.470;-0.376;2023-07-13T10:44:53;6.20;;;4.30;;
79124;SDS011;68527;39.470;-0.376;2023-07-13T10:47:18;8.10;;;4.60;;
79124;SDS011;68527;39.470;-0.376;2023-07-13T10:49:44;7.20;;;5.10;;
79124;SDS011;68527;39.470;-0.376;2023-07-13T10:58:01;10.70;;;5.00;;
79124;SDS011;68527;39.470;-0.376;2023-07-13T11:00:46;10.90;;;4.90;;
79124;SDS011;68527;39.470;-0.376;2023-07-13T11:03:19;7.70;;;4.90;;
79124;SDS011;68527;39.470;-0.376;2023-07-13T11:05:50;7.40;;;4.00;;
79124;SDS011;68527;39.470;-0.376;2023-07-13T11:08:19;6.80;;;4.40;;
79124;SDS011;68527;39.470;-0.376;2023-07-13T11:10:47;7.80;;;4.30;;
79124;SDS011;68527;39.470;-0.376;2023-07-13T11:16:01;6.00;;;4.10;;
79124;SDS011;68527;39.470;-0.376;2023-07-13T11:18:38;7.90;;;4.10;;
79124;SDS011;68527;39.470;-0.376;2023-07-13T11:21:17;7.40;;;4.10;;
79124;SDS011;68527;39.470;-0.376;2023-07-13T11:23:54;6.30;;;4.50;;
79124;SDS011;68527;39.470;-0.376;2023-07-13T11:34:28;7.90;;;4.20;;
79124;SDS011;68527;39.470;-0.376;2023-07-13T11:36:56;8.50;;;4.40;;
79124;SDS011;68527;39.470;-0.376;2023-07-13T11:39:26;8.30;;;4.00;;
79124;SDS011;68527;39.470;-0.376;2023-07-13T11:41:59;8.10;;;3.80;;
79124;SDS011;68527;39.470;-0.376;2023-07-13T11:44:28;4.70;;;3.40;;
79124;SDS011;68527;39.470;-0.376;2023-07-13T11:46:58;6.40;;;3.70;;
79124;SDS011;68527;39.470;-0.376;2023-07-13T11:49:29;7.60;;;4.30;;
79124;SDS011;68527;39.470;-0.376;2023-07-13T11:51:55;5.80;;;3.90;;
79124;SDS011;68527;39.470;-0.376;2023-07-13T11:54:29;7.70;;;3.70;;
79124;SDS011;68527;39.470;-0.376;2023-07-13T11:56:57;6.30;;;3.60;;
79124;SDS011;68527;39.470;-0.376;2023-07-13T11:59:29;6.60;;;3.80;;
79124;SDS011;68527;39.470;-0.376;2023-07-13T12:01:55;6.40;;;4.10;;
79124;SDS011;68527;39.470;-0.376;2023-07-13T12:04:26;8.00;;;3.80;;
79124;SDS011;68527;39.470;-0.376;2023-07-13T12:07:36;8.00;;;4.10;;
79124;SDS011;68527;39.470;-0.376;2023-07-13T12:09:43;7.20;;;3.90;;
79124;SDS011;68527;39.470;-0.376;2023-07-13T12:12:12;5.10;;;3.60;;
79124;SDS011;68527;39.470;-0.376;2023-07-13T12:14:38;6.50;;;3.60;;
79124;SDS011;68527;39.470;-0.376;2023-07-13T12:17:15;6.90;;;3.60;;
79124;SDS011;68527;39.470;-0.376;2023-07-13T12:19:43;6.00;;;3.80;;
79124;SDS011;68527;39.470;-0.376;2023-07-13T12:22:11;5.90;;;3.50;;
79124;SDS011;68527;39.470;-0.376;2023-07-13T12:24:38;7.90;;;3.70;;
79124;SDS011;68527;39.470;-0.376;2023-07-13T12:27:05;5.20;;;3.30;;
79124;SDS011;68527;39.470;-0.376;2023-07-13T12:29:32;5.50;;;3.20;;
79124;SDS011;68527;39.470;-0.376;2023-07-13T12:31:58;7.70;;;3.50;;
79124;SDS011;68527;39.470;-0.376;2023-07-13T12:34:25;5.20;;;3.30;;
79124;SDS011;68527;39.470;-0.376;2023-07-13T12:41:52;8.00;;;3.30;;
79124;SDS011;68527;39.470;-0.376;2023-07-13T12:44:25;5.70;;;3.10;;
79124;SDS011;68527;39.470;-0.376;2023-07-13T12:46:58;6.10;;;3.20;;
79124;SDS011;68527;39.470;-0.376;2023-07-13T12:49:32;5.40;;;3.50;;
79124;SDS011;68527;39.470;-0.376;2023-07-13T12:52:02;5.80;;;3.30;;
79124;SDS011;68527;39.470;-0.376;2023-07-13T12:54:29;6.50;;;3.40;;
79124;SDS011;68527;39.470;-0.376;2023-07-13T12:56:58;6.10;;;3.60;;
79124;SDS011;68527;39.470;-0.376;2023-07-13T12:59:25;5.80;;;3.10;;
79124;SDS011;68527;39.470;-0.376;2023-07-13T13:01:54;6.60;;;3.30;;
79124;SDS011;68527;39.470;-0.376;2023-07-13T13:04:20;5.80;;;3.00;;
79124;SDS011;68527;39.470;-0.376;2023-07-13T13:06:46;6.50;;;3.50;;
79124;SDS011;68527;39.470;-0.376;2023-07-13T13:09:13;7.10;;;3.40;;
79124;SDS011;68527;39.470;-0.376;2023-07-13T13:11:40;6.00;;;3.40;;
79124;SDS011;68527;39.470;-0.376;2023-07-13T13:14:06;6.10;;;3.30;;
79124;SDS011;68527;39.470;-0.376;2023-07-13T13:19:17;5.60;;;3.20;;
79124;SDS011;68527;39.470;-0.376;2023-07-13T13:21:44;6.60;;;3.40;;
79124;SDS011;68527;39.470;-0.376;2023-07-13T13:24:14;6.20;;;3.80;;
79124;SDS011;68527;39.470;-0.376;2023-07-13T13:26:42;7.60;;;3.30;;
79124;SDS011;68527;39.470;-0.376;2023-07-13T13:29:12;6.50;;;3.20;;
79124;SDS011;68527;39.470;-0.376;2023-07-13T13:31:39;5.10;;;3.00;;
79124;SDS011;68527;39.470;-0.376;2023-07-13T13:34:07;7.00;;;3.10;;
79124;SDS011;68527;39.470;-0.376;2023-07-13T13:36:35;5.00;;;3.20;;
79124;SDS011;68527;39.470;-0.376;2023-07-13T13:39:01;6.50;;;3.60;;
79124;SDS011;68527;39.470;-0.376;2023-07-13T13:41:27;5.20;;;2.80;;
79124;SDS011;68527;39.470;-0.376;2023-07-13T13:43:52;6.80;;;3.20;;
79124;SDS011;68527;39.470;-0.376;2023-07-13T13:46:19;6.40;;;3.20;;
79124;SDS011;68527;39.470;-0.376;2023-07-13T13:48:47;5.20;;;2.90;;
79124;SDS011;68527;39.470;-0.376;2023-07-13T13:51:20;6.60;;;2.90;;
79124;SDS011;68527;39.470;-0.376;2023-07-13T13:53:47;7.10;;;3.40;;
79124;SDS011;68527;39.470;-0.376;2023-07-13T13:56:13;8.20;;;3.00;;
79124;SDS011;68527;39.470;-0.376;2023-07-13T13:58:40;5.00;;;3.00;;
79124;SDS011;68527;39.470;-0.376;2023-07-13T14:01:10;7.80;;;3.00;;
79124;SDS011;68527;39.470;-0.376;2023-07-13T14:03:47;6.30;;;3.10;;
79124;SDS011;68527;39.470;-0.376;2023-07-13T14:06:14;6.50;;;3.00;;
79124;SDS011;68527;39.470;-0.376;2023-07-13T14:08:40;6.10;;;2.90;;
79124;SDS011;68527;39.470;-0.376;2023-07-13T14:11:07;5.60;;;3.20;;
79124;SDS011;68527;39.470;-0.376;2023-07-13T14:13:38;3.80;;;2.70;;
79124;SDS011;68527;39.470;-0.376;2023-07-13T14:16:10;7.70;;;3.30;;
79124;SDS011;68527;39.470;-0.376;2023-07-13T14:18:37;6.20;;;2.60;;
79124;SDS011;68527;39.470;-0.376;2023-07-13T14:21:03;7.00;;;2.90;;
79124;SDS011;68527;39.470;-0.376;2023-07-13T14:23:36;5.60;;;3.20;;
79124;SDS011;68527;39.470;-0.376;2023-07-13T14:26:01;6.60;;;3.20;;
79124;SDS011;68527;39.470;-0.376;2023-07-13T14:28:27;9.10;;;3.00;;
79124;SDS011;68527;39.470;-0.376;2023-07-13T14:30:54;6.90;;;3.00;;
79124;SDS011;68527;39.470;-0.376;2023-07-13T14:33:20;4.80;;;3.00;;
79124;SDS011;68527;39.470;-0.376;2023-07-13T14:35:45;4.90;;;2.60;;
79124;SDS011;68527;39.470;-0.376;2023-07-13T14:38:12;5.80;;;2.50;;
79124;SDS011;68527;39.470;-0.376;2023-07-13T14:40:41;7.00;;;2.80;;
79124;SDS011;68527;39.470;-0.376;2023-07-13T14:43:10;5.80;;;2.60;;
79124;SDS011;68527;39.470;-0.376;2023-07-13T14:45:41;6.00;;;2.80;;
79124;SDS011;68527;39.470;-0.376;2023-07-13T14:48:15;5.00;;;2.70;;
79124;SDS011;68527;39.470;-0.376;2023-07-13T14:50:45;5.10;;;2.30;;
79124;SDS011;68527;39.470;-0.376;2023-07-13T14:53:11;4.90;;;2.70;;
79124;SDS011;68527;39.470;-0.376;2023-07-13T14:55:38;4.80;;;2.30;;
79124;SDS011;68527;39.470;-0.376;2023-07-13T14:58:04;4.20;;;2.80;;
79124;SDS011;68527;39.470;-0.376;2023-07-13T15:00:29;4.80;;;2.40;;
79124;SDS011;68527;39.470;-0.376;2023-07-13T15:02:57;6.00;;;3.00;;
79124;SDS011;68527;39.470;-0.376;2023-07-13T15:05:24;3.70;;;2.60;;
79124;SDS011;68527;39.470;-0.376;2023-07-13T15:07:52;5.70;;;2.80;;
79124;SDS011;68527;39.470;-0.376;2023-07-13T15:10:19;4.20;;;2.40;;
79124;SDS011;68527;39.470;-0.376;2023-07-13T15:12:46;4.80;;;2.60;;
79124;SDS011;68527;39.470;-0.376;2023-07-13T15:15:12;3.10;;;2.10;;
79124;SDS011;68527;39.470;-0.376;2023-07-13T15:17:39;3.40;;;2.20;;
79124;SDS011;68527;39.470;-0.376;2023-07-13T15:20:12;4.40;;;2.50;;